sensor_id;sensor_type;location;lat;lon;timestamp;temperature;humidity
7384;DHT22;3733;47.994;8.820;2022-07-21T00:01:45;20.40;99.90
7384;DHT22;3733;47.994;8.820;2022-07-21T00:04:11;20.40;99.90
7384;DHT22;3733;47.994;8.820;2022-07-21T00:06:36;20.30;99.90
7384;DHT22;3733;47.994;8.820;2022-07-21T00:09:02;20.40;99.90
7384;DHT22;3733;47.994;8.820;2022-07-21T00:11:28;20.40;99.90
7384;DHT22;3733;47.994;8.820;2022-07-21T00:13:53;20.40;99.90
7384;DHT22;3733;47.994;8.820;2022-07-21T00:16:19;20.40;99.90
7384;DHT22;3733;47.994;8.820;2022-07-21T00:18:45;20.30;99.90
7384;DHT22;3733;47.994;8.820;2022-07-21T00:21:10;20.30;99.90
7384;DHT22;3733;47.994;8.820;2022-07-21T00:23:36;20.20;99.90
7384;DHT22;3733;47.994;8.820;2022-07-21T00:26:02;20.20;99.90
7384;DHT22;3733;47.994;8.820;2022-07-21T00:28:28;20.20;99.90
7384;DHT22;3733;47.994;8.820;2022-07-21T00:30:53;20.20;99.90
7384;DHT22;3733;47.994;8.820;2022-07-21T00:33:19;20.10;99.90
7384;DHT22;3733;47.994;8.820;2022-07-21T00:35:44;20.20;99.90
7384;DHT22;3733;47.994;8.820;2022-07-21T00:38:10;20.10;99.90
7384;DHT22;3733;47.994;8.820;2022-07-21T00:40:36;20.10;99.90
7384;DHT22;3733;47.994;8.820;2022-07-21T00:43:01;20.10;99.90
7384;DHT22;3733;47.994;8.820;2022-07-21T00:45:27;20.10;99.90
7384;DHT22;3733;47.994;8.820;2022-07-21T00:47:53;20.10;99.90
7384;DHT22;3733;47.994;8.820;2022-07-21T00:50:20;20.20;99.90
7384;DHT22;3733;47.994;8.820;2022-07-21T00:52:46;20.20;99.90
7384;DHT22;3733;47.994;8.820;2022-07-21T00:55:14;20.20;99.90
7384;DHT22;3733;47.994;8.820;2022-07-21T00:57:41;20.20;99.90
7384;DHT22;3733;47.994;8.820;2022-07-21T01:00:10;20.20;99.90
7384;DHT22;3733;47.994;8.820;2022-07-21T01:02:36;20.20;99.90
7384;DHT22;3733;47.994;8.820;2022-07-21T01:05:07;20.10;99.90
7384;DHT22;3733;47.994;8.820;2022-07-21T01:07:38;20.10;99.90
7384;DHT22;3733;47.994;8.820;2022-07-21T01:10:04;20.10;99.90
7384;DHT22;3733;47.994;8.820;2022-07-21T01:12:29;20.10;99.90
7384;DHT22;3733;47.994;8.820;2022-07-21T01:14:55;20.10;99.90
7384;DHT22;3733;47.994;8.820;2022-07-21T01:17:21;20.10;99.90
7384;DHT22;3733;47.994;8.820;2022-07-21T01:19:48;20.10;99.90
7384;DHT22;3733;47.994;8.820;2022-07-21T01:22:14;20.10;99.90
7384;DHT22;3733;47.994;8.820;2022-07-21T01:24:40;20.10;99.90
7384;DHT22;3733;47.994;8.820;2022-07-21T01:27:05;20.10;99.90
7384;DHT22;3733;47.994;8.820;2022-07-21T01:29:31;20.10;99.90
7384;DHT22;3733;47.994;8.820;2022-07-21T01:31:56;20.10;99.90
7384;DHT22;3733;47.994;8.820;2022-07-21T01:34:22;20.20;99.90
7384;DHT22;3733;47.994;8.820;2022-07-21T01:36:48;20.20;99.90
7384;DHT22;3733;47.994;8.820;2022-07-21T01:39:13;20.10;99.90
7384;DHT22;3733;47.994;8.820;2022-07-21T01:41:58;20.10;99.90
7384;DHT22;3733;47.994;8.820;2022-07-21T01:44:23;20.10;99.90
7384;DHT22;3733;47.994;8.820;2022-07-21T01:46:51;20.10;99.90
7384;DHT22;3733;47.994;8.820;2022-07-21T01:49:19;20.10;99.90
7384;DHT22;3733;47.994;8.820;2022-07-21T01:51:45;20.10;99.90
7384;DHT22;3733;47.994;8.820;2022-07-21T01:54:11;20.10;99.90
7384;DHT22;3733;47.994;8.820;2022-07-21T01:56:38;20.10;99.90
7384;DHT22;3733;47.994;8.820;2022-07-21T01:59:04;20.10;99.90
7384;DHT22;3733;47.994;8.820;2022-07-21T02:01:31;20.10;99.90
7384;DHT22;3733;47.994;8.820;2022-07-21T02:03:59;20.10;99.90
7384;DHT22;3733;47.994;8.820;2022-07-21T02:06:25;20.10;99.90
7384;DHT22;3733;47.994;8.820;2022-07-21T02:08:51;20.10;99.90
7384;DHT22;3733;47.994;8.820;2022-07-21T02:11:17;20.10;99.90
7384;DHT22;3733;47.994;8.820;2022-07-21T02:13:44;20.10;99.90
7384;DHT22;3733;47.994;8.820;2022-07-21T02:16:10;20.10;99.90
7384;DHT22;3733;47.994;8.820;2022-07-21T02:18:36;20.00;99.90
7384;DHT22;3733;47.994;8.820;2022-07-21T02:21:02;20.00;99.90
7384;DHT22;3733;47.994;8.820;2022-07-21T02:23:28;20.00;99.90
7384;DHT22;3733;47.994;8.820;2022-07-21T02:25:54;20.00;99.90
7384;DHT22;3733;47.994;8.820;2022-07-21T02:28:20;20.00;99.90
7384;DHT22;3733;47.994;8.820;2022-07-21T02:30:47;19.90;99.90
7384;DHT22;3733;47.994;8.820;2022-07-21T02:33:13;19.90;99.90
7384;DHT22;3733;47.994;8.820;2022-07-21T02:35:39;19.90;99.90
7384;DHT22;3733;47.994;8.820;2022-07-21T02:38:05;19.90;99.90
7384;DHT22;3733;47.994;8.820;2022-07-21T02:40:31;19.90;99.90
7384;DHT22;3733;47.994;8.820;2022-07-21T02:42:56;19.90;99.90
7384;DHT22;3733;47.994;8.820;2022-07-21T02:45:23;19.90;99.90
7384;DHT22;3733;47.994;8.820;2022-07-21T02:47:54;19.90;99.90
7384;DHT22;3733;47.994;8.820;2022-07-21T02:50:24;19.90;99.90
7384;DHT22;3733;47.994;8.820;2022-07-21T02:52:50;19.90;99.90
7384;DHT22;3733;47.994;8.820;2022-07-21T02:55:16;19.90;99.90
7384;DHT22;3733;47.994;8.820;2022-07-21T02:57:42;19.90;99.90
7384;DHT22;3733;47.994;8.820;2022-07-21T03:00:09;19.90;99.90
7384;DHT22;3733;47.994;8.820;2022-07-21T03:02:35;19.90;99.90
7384;DHT22;3733;47.994;8.820;2022-07-21T03:05:01;19.90;99.90
7384;DHT22;3733;47.994;8.820;2022-07-21T03:07:27;19.90;99.90
7384;DHT22;3733;47.994;8.820;2022-07-21T03:09:53;19.90;99.90
7384;DHT22;3733;47.994;8.820;2022-07-21T03:12:18;19.90;99.90
7384;DHT22;3733;47.994;8.820;2022-07-21T03:14:44;19.90;99.90
7384;DHT22;3733;47.994;8.820;2022-07-21T03:17:10;19.90;99.90
7384;DHT22;3733;47.994;8.820;2022-07-21T03:19:35;19.90;99.90
7384;DHT22;3733;47.994;8.820;2022-07-21T03:22:01;19.90;99.90
7384;DHT22;3733;47.994;8.820;2022-07-21T03:24:27;19.90;99.90
7384;DHT22;3733;47.994;8.820;2022-07-21T03:26:55;19.90;99.90
7384;DHT22;3733;47.994;8.820;2022-07-21T03:29:20;19.90;99.90
7384;DHT22;3733;47.994;8.820;2022-07-21T03:31:46;19.90;99.90
7384;DHT22;3733;47.994;8.820;2022-07-21T03:34:12;19.90;99.90
7384;DHT22;3733;47.994;8.820;2022-07-21T03:36:38;19.90;99.90
7384;DHT22;3733;47.994;8.820;2022-07-21T03:39:03;19.90;99.90
7384;DHT22;3733;47.994;8.820;2022-07-21T03:41:30;19.90;99.90
7384;DHT22;3733;47.994;8.820;2022-07-21T03:43:55;19.90;99.90
7384;DHT22;3733;47.994;8.820;2022-07-21T03:46:22;19.90;99.90
7384;DHT22;3733;47.994;8.820;2022-07-21T03:48:47;19.80;99.90
7384;DHT22;3733;47.994;8.820;2022-07-21T03:51:13;19.80;99.90
7384;DHT22;3733;47.994;8.820;2022-07-21T03:53:39;19.80;99.90
7384;DHT22;3733;47.994;8.820;2022-07-21T03:56:04;19.80;99.90
7384;DHT22;3733;47.994;8.820;2022-07-21T03:58:30;19.80;99.90
7384;DHT22;3733;47.994;8.820;2022-07-21T04:00:56;19.80;99.90
7384;DHT22;3733;47.994;8.820;2022-07-21T04:03:21;19.80;99.90
7384;DHT22;3733;47.994;8.820;2022-07-21T04:05:47;19.80;99.90
7384;DHT22;3733;47.994;8.820;2022-07-21T04:08:13;19.80;99.90
7384;DHT22;3733;47.994;8.820;2022-07-21T04:10:40;19.80;99.90
7384;DHT22;3733;47.994;8.820;2022-07-21T04:13:08;19.90;99.90
7384;DHT22;3733;47.994;8.820;2022-07-21T04:15:35;19.90;99.90
7384;DHT22;3733;47.994;8.820;2022-07-21T04:18:01;19.90;99.90
7384;DHT22;3733;47.994;8.820;2022-07-21T04:20:27;19.90;99.90
7384;DHT22;3733;47.994;8.820;2022-07-21T04:22:53;19.90;99.90
7384;DHT22;3733;47.994;8.820;2022-07-21T04:25:19;19.80;99.90
7384;DHT22;3733;47.994;8.820;2022-07-21T04:27:46;19.90;99.90
7384;DHT22;3733;47.994;8.820;2022-07-21T04:30:15;19.80;99.90
7384;DHT22;3733;47.994;8.820;2022-07-21T04:32:41;19.80;99.90
7384;DHT22;3733;47.994;8.820;2022-07-21T04:35:08;19.80;99.90
7384;DHT22;3733;47.994;8.820;2022-07-21T04:37:34;19.80;99.90
7384;DHT22;3733;47.994;8.820;2022-07-21T04:40:00;19.70;99.90
7384;DHT22;3733;47.994;8.820;2022-07-21T04:42:27;19.70;99.90
7384;DHT22;3733;47.994;8.820;2022-07-21T04:44:52;19.70;99.90
7384;DHT22;3733;47.994;8.820;2022-07-21T04:47:18;19.70;99.90
7384;DHT22;3733;47.994;8.820;2022-07-21T04:49:44;19.70;99.90
7384;DHT22;3733;47.994;8.820;2022-07-21T04:52:10;19.80;99.90
7384;DHT22;3733;47.994;8.820;2022-07-21T04:54:35;19.80;99.90
7384;DHT22;3733;47.994;8.820;2022-07-21T04:57:01;19.70;99.90
7384;DHT22;3733;47.994;8.820;2022-07-21T04:59:29;19.80;99.90
7384;DHT22;3733;47.994;8.820;2022-07-21T05:01:56;19.80;99.90
7384;DHT22;3733;47.994;8.820;2022-07-21T05:04:22;19.80;99.90
7384;DHT22;3733;47.994;8.820;2022-07-21T05:06:47;19.80;99.90
7384;DHT22;3733;47.994;8.820;2022-07-21T05:09:13;19.80;99.90
7384;DHT22;3733;47.994;8.820;2022-07-21T05:11:39;19.80;99.90
7384;DHT22;3733;47.994;8.820;2022-07-21T05:14:05;19.80;99.90
7384;DHT22;3733;47.994;8.820;2022-07-21T05:16:31;19.80;99.90
7384;DHT22;3733;47.994;8.820;2022-07-21T05:18:57;19.80;99.90
7384;DHT22;3733;47.994;8.820;2022-07-21T05:21:22;19.80;99.90
7384;DHT22;3733;47.994;8.820;2022-07-21T05:23:48;19.80;99.90
7384;DHT22;3733;47.994;8.820;2022-07-21T05:26:14;19.80;99.90
7384;DHT22;3733;47.994;8.820;2022-07-21T05:28:40;19.80;99.90
7384;DHT22;3733;47.994;8.820;2022-07-21T05:31:06;19.80;99.90
7384;DHT22;3733;47.994;8.820;2022-07-21T05:33:32;19.70;99.90
7384;DHT22;3733;47.994;8.820;2022-07-21T05:35:58;19.80;99.90
7384;DHT22;3733;47.994;8.820;2022-07-21T05:38:23;19.80;99.90
7384;DHT22;3733;47.994;8.820;2022-07-21T05:40:49;19.90;99.90
7384;DHT22;3733;47.994;8.820;2022-07-21T05:43:14;19.90;99.90
7384;DHT22;3733;47.994;8.820;2022-07-21T05:45:40;19.90;99.90
7384;DHT22;3733;47.994;8.820;2022-07-21T05:48:06;20.00;99.90
7384;DHT22;3733;47.994;8.820;2022-07-21T05:50:31;20.00;99.90
7384;DHT22;3733;47.994;8.820;2022-07-21T05:52:57;20.00;99.90
7384;DHT22;3733;47.994;8.820;2022-07-21T05:55:23;19.90;99.90
7384;DHT22;3733;47.994;8.820;2022-07-21T05:57:49;19.90;99.90
7384;DHT22;3733;47.994;8.820;2022-07-21T06:00:16;19.90;99.90
7384;DHT22;3733;47.994;8.820;2022-07-21T06:02:43;20.00;99.90
7384;DHT22;3733;47.994;8.820;2022-07-21T06:05:08;20.00;99.90
7384;DHT22;3733;47.994;8.820;2022-07-21T06:07:36;20.00;99.90
7384;DHT22;3733;47.994;8.820;2022-07-21T06:10:03;20.10;99.90
7384;DHT22;3733;47.994;8.820;2022-07-21T06:12:28;20.00;99.90
7384;DHT22;3733;47.994;8.820;2022-07-21T06:14:54;20.10;99.90
7384;DHT22;3733;47.994;8.820;2022-07-21T06:17:21;20.20;99.90
7384;DHT22;3733;47.994;8.820;2022-07-21T06:19:47;20.30;99.90
7384;DHT22;3733;47.994;8.820;2022-07-21T06:22:13;20.40;99.90
7384;DHT22;3733;47.994;8.820;2022-07-21T06:24:38;20.40;99.90
7384;DHT22;3733;47.994;8.820;2022-07-21T06:27:04;20.40;99.90
7384;DHT22;3733;47.994;8.820;2022-07-21T06:29:30;20.40;99.90
7384;DHT22;3733;47.994;8.820;2022-07-21T06:31:55;20.50;99.90
7384;DHT22;3733;47.994;8.820;2022-07-21T06:34:21;20.50;99.90
7384;DHT22;3733;47.994;8.820;2022-07-21T06:36:47;20.50;99.90
7384;DHT22;3733;47.994;8.820;2022-07-21T06:39:12;20.50;99.90
7384;DHT22;3733;47.994;8.820;2022-07-21T06:41:39;20.50;99.90
7384;DHT22;3733;47.994;8.820;2022-07-21T06:44:05;20.50;99.90
7384;DHT22;3733;47.994;8.820;2022-07-21T06:46:32;20.60;99.90
7384;DHT22;3733;47.994;8.820;2022-07-21T06:48:57;20.70;99.90
7384;DHT22;3733;47.994;8.820;2022-07-21T06:51:23;20.80;99.90
7384;DHT22;3733;47.994;8.820;2022-07-21T06:53:48;21.00;99.90
7384;DHT22;3733;47.994;8.820;2022-07-21T06:56:16;21.10;99.90
7384;DHT22;3733;47.994;8.820;2022-07-21T06:58:41;21.20;99.90
7384;DHT22;3733;47.994;8.820;2022-07-21T07:01:07;21.30;99.90
7384;DHT22;3733;47.994;8.820;2022-07-21T07:03:32;21.30;99.90
7384;DHT22;3733;47.994;8.820;2022-07-21T07:05:59;21.40;99.90
7384;DHT22;3733;47.994;8.820;2022-07-21T07:08:24;21.50;99.90
7384;DHT22;3733;47.994;8.820;2022-07-21T07:10:50;21.50;99.90
7384;DHT22;3733;47.994;8.820;2022-07-21T07:13:15;21.50;99.90
7384;DHT22;3733;47.994;8.820;2022-07-21T07:15:43;21.50;99.90
7384;DHT22;3733;47.994;8.820;2022-07-21T07:18:09;21.50;99.90
7384;DHT22;3733;47.994;8.820;2022-07-21T07:20:35;21.50;99.90
7384;DHT22;3733;47.994;8.820;2022-07-21T07:23:01;21.50;99.90
7384;DHT22;3733;47.994;8.820;2022-07-21T07:25:26;21.60;99.90
7384;DHT22;3733;47.994;8.820;2022-07-21T07:27:53;21.70;99.90
7384;DHT22;3733;47.994;8.820;2022-07-21T07:30:20;21.70;99.90
7384;DHT22;3733;47.994;8.820;2022-07-21T07:32:46;21.80;99.90
7384;DHT22;3733;47.994;8.820;2022-07-21T07:35:13;21.80;99.90
7384;DHT22;3733;47.994;8.820;2022-07-21T07:37:41;21.70;99.90
7384;DHT22;3733;47.994;8.820;2022-07-21T07:40:10;21.60;99.90
7384;DHT22;3733;47.994;8.820;2022-07-21T07:42:37;21.60;99.90
7384;DHT22;3733;47.994;8.820;2022-07-21T07:45:05;21.50;99.90
7384;DHT22;3733;47.994;8.820;2022-07-21T07:47:31;21.30;99.90
7384;DHT22;3733;47.994;8.820;2022-07-21T07:49:57;21.20;99.90
7384;DHT22;3733;47.994;8.820;2022-07-21T07:52:23;21.10;99.90
7384;DHT22;3733;47.994;8.820;2022-07-21T07:54:49;21.00;99.90
7384;DHT22;3733;47.994;8.820;2022-07-21T07:57:14;21.00;99.90
7384;DHT22;3733;47.994;8.820;2022-07-21T07:59:40;21.10;99.90
7384;DHT22;3733;47.994;8.820;2022-07-21T08:02:05;21.30;99.90
7384;DHT22;3733;47.994;8.820;2022-07-21T08:04:31;21.40;99.90
7384;DHT22;3733;47.994;8.820;2022-07-21T08:06:57;21.50;99.90
7384;DHT22;3733;47.994;8.820;2022-07-21T08:09:23;21.60;99.90
7384;DHT22;3733;47.994;8.820;2022-07-21T08:11:49;21.60;99.90
7384;DHT22;3733;47.994;8.820;2022-07-21T08:14:16;21.70;99.90
7384;DHT22;3733;47.994;8.820;2022-07-21T08:16:42;21.80;99.90
7384;DHT22;3733;47.994;8.820;2022-07-21T08:19:09;21.80;99.90
7384;DHT22;3733;47.994;8.820;2022-07-21T08:21:35;21.80;99.90
7384;DHT22;3733;47.994;8.820;2022-07-21T08:24:01;21.90;99.90
7384;DHT22;3733;47.994;8.820;2022-07-21T08:26:27;21.90;99.90
7384;DHT22;3733;47.994;8.820;2022-07-21T08:28:54;22.00;99.10
7384;DHT22;3733;47.994;8.820;2022-07-21T08:31:19;22.10;98.50
7384;DHT22;3733;47.994;8.820;2022-07-21T08:33:45;22.30;98.90
7384;DHT22;3733;47.994;8.820;2022-07-21T08:36:11;22.30;95.50
7384;DHT22;3733;47.994;8.820;2022-07-21T08:38:37;22.50;95.80
7384;DHT22;3733;47.994;8.820;2022-07-21T08:41:03;22.60;95.90
7384;DHT22;3733;47.994;8.820;2022-07-21T08:43:29;22.60;92.80
7384;DHT22;3733;47.994;8.820;2022-07-21T08:45:55;22.50;93.70
7384;DHT22;3733;47.994;8.820;2022-07-21T08:48:25;22.50;95.50
7384;DHT22;3733;47.994;8.820;2022-07-21T08:50:52;22.40;92.50
7384;DHT22;3733;47.994;8.820;2022-07-21T08:53:17;22.40;93.90
7384;DHT22;3733;47.994;8.820;2022-07-21T08:55:43;22.40;92.30
7384;DHT22;3733;47.994;8.820;2022-07-21T08:58:10;22.30;93.60
7384;DHT22;3733;47.994;8.820;2022-07-21T09:00:37;22.30;95.40
7384;DHT22;3733;47.994;8.820;2022-07-21T09:03:19;22.30;98.10
7384;DHT22;3733;47.994;8.820;2022-07-21T09:06:09;22.50;96.90
7384;DHT22;3733;47.994;8.820;2022-07-21T09:08:48;22.70;97.50
7384;DHT22;3733;47.994;8.820;2022-07-21T09:11:23;22.90;96.40
7384;DHT22;3733;47.994;8.820;2022-07-21T09:14:04;23.00;90.10
7384;DHT22;3733;47.994;8.820;2022-07-21T09:16:42;23.00;91.40
7384;DHT22;3733;47.994;8.820;2022-07-21T09:21:59;23.50;92.40
7384;DHT22;3733;47.994;8.820;2022-07-21T09:29:38;23.70;77.90
7384;DHT22;3733;47.994;8.820;2022-07-21T09:32:24;23.70;75.80
7384;DHT22;3733;47.994;8.820;2022-07-21T09:34:58;23.80;74.50
7384;DHT22;3733;47.994;8.820;2022-07-21T09:37:24;23.80;69.60
7384;DHT22;3733;47.994;8.820;2022-07-21T09:40:04;23.90;72.20
7384;DHT22;3733;47.994;8.820;2022-07-21T09:42:43;24.10;73.40
7384;DHT22;3733;47.994;8.820;2022-07-21T09:45:11;24.40;71.60
7384;DHT22;3733;47.994;8.820;2022-07-21T09:47:38;24.60;68.80
7384;DHT22;3733;47.994;8.820;2022-07-21T09:50:07;24.60;66.10
7384;DHT22;3733;47.994;8.820;2022-07-21T09:52:38;24.60;67.30
7384;DHT22;3733;47.994;8.820;2022-07-21T09:55:08;24.70;67.70
7384;DHT22;3733;47.994;8.820;2022-07-21T09:57:35;24.80;61.20
7384;DHT22;3733;47.994;8.820;2022-07-21T10:00:03;24.70;61.40
7384;DHT22;3733;47.994;8.820;2022-07-21T10:02:31;24.70;64.70
7384;DHT22;3733;47.994;8.820;2022-07-21T10:07:36;24.70;69.20
7384;DHT22;3733;47.994;8.820;2022-07-21T10:10:03;24.90;67.50
7384;DHT22;3733;47.994;8.820;2022-07-21T10:12:29;25.20;67.40
7384;DHT22;3733;47.994;8.820;2022-07-21T10:14:55;25.40;62.80
7384;DHT22;3733;47.994;8.820;2022-07-21T10:17:22;25.50;60.90
7384;DHT22;3733;47.994;8.820;2022-07-21T10:22:59;25.30;59.20
7384;DHT22;3733;47.994;8.820;2022-07-21T10:25:28;25.30;58.00
7384;DHT22;3733;47.994;8.820;2022-07-21T10:28:12;25.50;59.50
7384;DHT22;3733;47.994;8.820;2022-07-21T10:30:40;25.60;58.00
7384;DHT22;3733;47.994;8.820;2022-07-21T10:33:06;25.40;56.60
7384;DHT22;3733;47.994;8.820;2022-07-21T10:35:32;25.40;56.30
7384;DHT22;3733;47.994;8.820;2022-07-21T10:38:01;25.60;58.00
7384;DHT22;3733;47.994;8.820;2022-07-21T10:47:57;26.60;55.00
7384;DHT22;3733;47.994;8.820;2022-07-21T10:50:37;26.80;54.50
7384;DHT22;3733;47.994;8.820;2022-07-21T10:55:36;26.70;51.70
7384;DHT22;3733;47.994;8.820;2022-07-21T11:00:58;26.50;54.40
7384;DHT22;3733;47.994;8.820;2022-07-21T11:03:37;26.30;54.40
7384;DHT22;3733;47.994;8.820;2022-07-21T11:06:13;26.00;53.10
7384;DHT22;3733;47.994;8.820;2022-07-21T11:08:45;25.90;53.00
7384;DHT22;3733;47.994;8.820;2022-07-21T11:11:19;26.10;54.00
7384;DHT22;3733;47.994;8.820;2022-07-21T11:27:27;27.10;48.30
7384;DHT22;3733;47.994;8.820;2022-07-21T11:29:57;27.00;48.50
7384;DHT22;3733;47.994;8.820;2022-07-21T11:32:24;26.80;48.70
7384;DHT22;3733;47.994;8.820;2022-07-21T11:34:56;26.90;49.70
7384;DHT22;3733;47.994;8.820;2022-07-21T11:37:30;27.00;49.90
7384;DHT22;3733;47.994;8.820;2022-07-21T11:39:57;27.20;50.10
7384;DHT22;3733;47.994;8.820;2022-07-21T11:42:24;27.20;49.20
7384;DHT22;3733;47.994;8.820;2022-07-21T11:44:51;27.20;49.90
7384;DHT22;3733;47.994;8.820;2022-07-21T11:47:16;27.20;49.80
7384;DHT22;3733;47.994;8.820;2022-07-21T11:49:43;27.20;48.60
7384;DHT22;3733;47.994;8.820;2022-07-21T11:52:16;27.30;49.00
7384;DHT22;3733;47.994;8.820;2022-07-21T11:54:45;27.30;49.40
7384;DHT22;3733;47.994;8.820;2022-07-21T11:57:11;27.20;48.00
7384;DHT22;3733;47.994;8.820;2022-07-21T11:59:38;27.20;48.10
7384;DHT22;3733;47.994;8.820;2022-07-21T12:02:12;27.10;49.70
7384;DHT22;3733;47.994;8.820;2022-07-21T12:04:40;27.00;50.30
7384;DHT22;3733;47.994;8.820;2022-07-21T12:09:42;26.80;48.90
7384;DHT22;3733;47.994;8.820;2022-07-21T12:12:09;26.80;48.30
7384;DHT22;3733;47.994;8.820;2022-07-21T12:14:48;26.90;48.20
7384;DHT22;3733;47.994;8.820;2022-07-21T12:17:31;27.20;48.00
7384;DHT22;3733;47.994;8.820;2022-07-21T12:19:58;27.50;46.50
7384;DHT22;3733;47.994;8.820;2022-07-21T12:22:46;27.30;46.60
7384;DHT22;3733;47.994;8.820;2022-07-21T12:25:16;27.30;47.90
7384;DHT22;3733;47.994;8.820;2022-07-21T12:27:45;27.60;47.60
7384;DHT22;3733;47.994;8.820;2022-07-21T12:30:36;27.70;45.30
7384;DHT22;3733;47.994;8.820;2022-07-21T12:33:08;28.10;46.10
7384;DHT22;3733;47.994;8.820;2022-07-21T12:35:36;28.40;45.30
7384;DHT22;3733;47.994;8.820;2022-07-21T12:40:30;28.70;44.40
7384;DHT22;3733;47.994;8.820;2022-07-21T12:43:23;28.70;44.00
7384;DHT22;3733;47.994;8.820;2022-07-21T12:48:34;29.00;43.30
7384;DHT22;3733;47.994;8.820;2022-07-21T12:51:06;29.20;43.50
7384;DHT22;3733;47.994;8.820;2022-07-21T12:53:34;29.40;42.70
7384;DHT22;3733;47.994;8.820;2022-07-21T12:56:00;29.60;43.20
7384;DHT22;3733;47.994;8.820;2022-07-21T12:58:26;29.90;43.80
7384;DHT22;3733;47.994;8.820;2022-07-21T13:00:52;30.20;42.80
7384;DHT22;3733;47.994;8.820;2022-07-21T13:03:18;30.10;41.20
7384;DHT22;3733;47.994;8.820;2022-07-21T13:05:43;29.90;40.60
7384;DHT22;3733;47.994;8.820;2022-07-21T13:08:09;29.90;41.20
7384;DHT22;3733;47.994;8.820;2022-07-21T13:10:34;30.00;41.30
7384;DHT22;3733;47.994;8.820;2022-07-21T13:13:00;30.30;40.50
7384;DHT22;3733;47.994;8.820;2022-07-21T13:15:26;30.40;39.50
7384;DHT22;3733;47.994;8.820;2022-07-21T13:17:52;30.00;40.10
7384;DHT22;3733;47.994;8.820;2022-07-21T13:20:17;29.80;40.40
7384;DHT22;3733;47.994;8.820;2022-07-21T13:22:43;29.50;41.10
7384;DHT22;3733;47.994;8.820;2022-07-21T13:25:10;29.60;41.00
7384;DHT22;3733;47.994;8.820;2022-07-21T13:27:36;29.80;41.50
7384;DHT22;3733;47.994;8.820;2022-07-21T13:30:04;29.90;41.20
7384;DHT22;3733;47.994;8.820;2022-07-21T13:32:33;29.90;41.20
7384;DHT22;3733;47.994;8.820;2022-07-21T13:34:59;29.70;41.40
7384;DHT22;3733;47.994;8.820;2022-07-21T13:37:25;29.50;41.40
7384;DHT22;3733;47.994;8.820;2022-07-21T13:39:50;29.50;40.70
7384;DHT22;3733;47.994;8.820;2022-07-21T13:42:16;29.70;40.20
7384;DHT22;3733;47.994;8.820;2022-07-21T13:44:42;30.10;41.30
7384;DHT22;3733;47.994;8.820;2022-07-21T13:47:08;30.60;41.30
7384;DHT22;3733;47.994;8.820;2022-07-21T13:49:33;30.80;39.30
7384;DHT22;3733;47.994;8.820;2022-07-21T13:51:59;30.40;40.00
7384;DHT22;3733;47.994;8.820;2022-07-21T13:54:25;30.00;40.90
7384;DHT22;3733;47.994;8.820;2022-07-21T13:56:50;29.50;41.00
7384;DHT22;3733;47.994;8.820;2022-07-21T13:59:16;29.20;42.80
7384;DHT22;3733;47.994;8.820;2022-07-21T14:01:42;28.90;43.30
7384;DHT22;3733;47.994;8.820;2022-07-21T14:04:08;29.00;43.90
7384;DHT22;3733;47.994;8.820;2022-07-21T14:06:34;29.50;43.10
7384;DHT22;3733;47.994;8.820;2022-07-21T14:09:00;30.00;41.40
7384;DHT22;3733;47.994;8.820;2022-07-21T14:11:25;30.50;41.90
7384;DHT22;3733;47.994;8.820;2022-07-21T14:13:54;30.90;40.40
7384;DHT22;3733;47.994;8.820;2022-07-21T14:16:20;30.80;39.70
7384;DHT22;3733;47.994;8.820;2022-07-21T14:18:45;30.50;40.60
7384;DHT22;3733;47.994;8.820;2022-07-21T14:21:11;30.20;41.20
7384;DHT22;3733;47.994;8.820;2022-07-21T14:23:37;29.80;41.20
7384;DHT22;3733;47.994;8.820;2022-07-21T14:26:03;29.70;41.30
7384;DHT22;3733;47.994;8.820;2022-07-21T14:28:29;29.70;40.80
7384;DHT22;3733;47.994;8.820;2022-07-21T14:30:54;29.60;41.60
7384;DHT22;3733;47.994;8.820;2022-07-21T14:33:20;29.60;42.20
7384;DHT22;3733;47.994;8.820;2022-07-21T14:35:46;29.70;42.00
7384;DHT22;3733;47.994;8.820;2022-07-21T14:38:11;29.60;40.90
7384;DHT22;3733;47.994;8.820;2022-07-21T14:40:38;29.40;41.40
7384;DHT22;3733;47.994;8.820;2022-07-21T14:43:04;29.20;40.70
7384;DHT22;3733;47.994;8.820;2022-07-21T14:45:30;29.00;41.20
7384;DHT22;3733;47.994;8.820;2022-07-21T14:47:56;28.80;42.10
7384;DHT22;3733;47.994;8.820;2022-07-21T14:50:24;28.70;42.70
7384;DHT22;3733;47.994;8.820;2022-07-21T14:52:50;28.50;41.80
7384;DHT22;3733;47.994;8.820;2022-07-21T14:55:16;28.30;40.70
7384;DHT22;3733;47.994;8.820;2022-07-21T14:57:43;28.30;41.20
7384;DHT22;3733;47.994;8.820;2022-07-21T15:00:09;28.30;40.70
7384;DHT22;3733;47.994;8.820;2022-07-21T15:02:35;28.20;41.00
7384;DHT22;3733;47.994;8.820;2022-07-21T15:05:02;28.00;41.60
7384;DHT22;3733;47.994;8.820;2022-07-21T15:07:28;27.90;41.00
7384;DHT22;3733;47.994;8.820;2022-07-21T15:09:53;27.80;41.90
7384;DHT22;3733;47.994;8.820;2022-07-21T15:12:24;27.70;42.50
7384;DHT22;3733;47.994;8.820;2022-07-21T15:14:49;27.70;43.50
7384;DHT22;3733;47.994;8.820;2022-07-21T15:17:15;27.60;43.10
7384;DHT22;3733;47.994;8.820;2022-07-21T15:19:43;27.80;43.20
7384;DHT22;3733;47.994;8.820;2022-07-21T15:22:08;28.40;42.70
7384;DHT22;3733;47.994;8.820;2022-07-21T15:24:35;28.90;42.60
7384;DHT22;3733;47.994;8.820;2022-07-21T15:27:01;29.00;40.80
7384;DHT22;3733;47.994;8.820;2022-07-21T15:29:26;29.00;40.50
7384;DHT22;3733;47.994;8.820;2022-07-21T15:31:52;29.00;40.60
7384;DHT22;3733;47.994;8.820;2022-07-21T15:34:18;28.90;39.80
7384;DHT22;3733;47.994;8.820;2022-07-21T15:36:43;28.80;39.60
7384;DHT22;3733;47.994;8.820;2022-07-21T15:39:09;29.00;40.00
7384;DHT22;3733;47.994;8.820;2022-07-21T15:41:36;29.60;40.70
7384;DHT22;3733;47.994;8.820;2022-07-21T15:44:02;30.20;39.80
7384;DHT22;3733;47.994;8.820;2022-07-21T15:46:28;30.80;38.80
7384;DHT22;3733;47.994;8.820;2022-07-21T15:48:54;31.30;38.50
7384;DHT22;3733;47.994;8.820;2022-07-21T15:51:19;31.30;38.20
7384;DHT22;3733;47.994;8.820;2022-07-21T15:53:45;31.00;37.70
7384;DHT22;3733;47.994;8.820;2022-07-21T15:56:11;30.60;37.30
7384;DHT22;3733;47.994;8.820;2022-07-21T15:58:36;30.00;37.20
7384;DHT22;3733;47.994;8.820;2022-07-21T16:01:22;29.60;37.70
7384;DHT22;3733;47.994;8.820;2022-07-21T16:03:47;29.20;38.20
7384;DHT22;3733;47.994;8.820;2022-07-21T16:06:13;29.20;39.70
7384;DHT22;3733;47.994;8.820;2022-07-21T16:08:38;29.60;39.40
7384;DHT22;3733;47.994;8.820;2022-07-21T16:11:04;30.10;38.70
7384;DHT22;3733;47.994;8.820;2022-07-21T16:13:30;30.60;37.10
7384;DHT22;3733;47.994;8.820;2022-07-21T16:15:56;31.00;36.80
7384;DHT22;3733;47.994;8.820;2022-07-21T16:18:21;31.30;35.90
7384;DHT22;3733;47.994;8.820;2022-07-21T16:20:47;31.60;36.60
7384;DHT22;3733;47.994;8.820;2022-07-21T16:23:12;31.80;35.50
7384;DHT22;3733;47.994;8.820;2022-07-21T16:25:38;32.00;35.60
7384;DHT22;3733;47.994;8.820;2022-07-21T16:28:04;32.00;34.80
7384;DHT22;3733;47.994;8.820;2022-07-21T16:30:29;32.00;35.10
7384;DHT22;3733;47.994;8.820;2022-07-21T16:32:55;31.90;34.90
7384;DHT22;3733;47.994;8.820;2022-07-21T16:35:21;31.40;36.20
7384;DHT22;3733;47.994;8.820;2022-07-21T16:37:48;30.70;36.30
7384;DHT22;3733;47.994;8.820;2022-07-21T16:40:15;30.10;36.70
7384;DHT22;3733;47.994;8.820;2022-07-21T16:42:44;29.40;38.00
7384;DHT22;3733;47.994;8.820;2022-07-21T16:45:10;29.10;39.20
7384;DHT22;3733;47.994;8.820;2022-07-21T16:47:36;28.90;39.80
7384;DHT22;3733;47.994;8.820;2022-07-21T16:50:02;28.80;40.20